Decoded Metar for TTPP (PORT-OF-SPAIN in TRINIDAD AND TOBAGO) (IATA:POS) | Meteo·Mobile Aviation Weather
aviador You're here:

TTPP Decoded Metar

PORT-OF-SPAIN in TRINIDAD AND TOBAGO
Report Time2018-10-23 22:00:00
UTC Time2018-10-23 22:13:13
Flight Rules vfr VFR
Wind090° at 07 kt
W.Decomp.*RWY 10: 7.0 kt HW 0.5 kt RCW
W.Rank090° ranks 3
Current wind is below 090° avg. (9.2)
Visibility9999 m
Phenomena:N/A
Clouds:Few CB 012 Hf
Expected CloudBase > 1,200 ft AGL from Temp-Dew spread
CeilingNone
Temp26°C (ISA +11)
Dew Point23°C (84% RH)
QNH1010 hPa
Density Alt1,801 ft
Elevation49 ft
Report Wrong Elevation
Raw Report
TTPP 232200Z 09007KT 9999 FEW012CB 26/23 Q1010 NOSIG RMK CB
SHWRS-WNW NW=

Extra information for TTPP:More info

Metar Taf Metar & Taf Last 4 Metars F.Rules Stats Wind Profile Meteogram Temp Stats Airport Information Weather charts Add Link Nearby VenuesMetar ALERT Operation Metar Decoded Social comments